sensor_id;sensor_type;location;lat;lon;timestamp;pressure;altitude;pressure_sealevel;temperature;humidity
61359;BME280;47228;46.762;23.598;2023-07-29T00:00:54;96949.14;;;18.40;62.59
61359;BME280;47228;46.762;23.598;2023-07-29T00:03:26;96948.28;;;18.41;62.66
61359;BME280;47228;46.762;23.598;2023-07-29T00:05:54;96950.00;;;18.39;62.99
61359;BME280;47228;46.762;23.598;2023-07-29T00:08:22;96946.66;;;18.37;63.06
61359;BME280;47228;46.762;23.598;2023-07-29T00:10:50;96946.11;;;18.33;63.07
61359;BME280;47228;46.762;23.598;2023-07-29T00:13:18;96944.38;;;18.30;62.97
61359;BME280;47228;46.762;23.598;2023-07-29T00:15:49;96951.42;;;18.28;62.91
61359;BME280;47228;46.762;23.598;2023-07-29T00:18:17;96947.38;;;18.25;62.94
61359;BME280;47228;46.762;23.598;2023-07-29T00:20:45;96945.55;;;18.24;62.77
61359;BME280;47228;46.762;23.598;2023-07-29T00:23:13;96946.04;;;18.24;63.04
61359;BME280;47228;46.762;23.598;2023-07-29T00:25:41;96943.40;;;18.24;63.25
61359;BME280;47228;46.762;23.598;2023-07-29T00:28:09;96942.21;;;18.25;63.17
61359;BME280;47228;46.762;23.598;2023-07-29T00:30:37;96942.70;;;18.25;63.31
61359;BME280;47228;46.762;23.598;2023-07-29T00:33:05;96946.52;;;18.26;63.62
61359;BME280;47228;46.762;23.598;2023-07-29T00:35:34;96943.84;;;18.26;63.44
61359;BME280;47228;46.762;23.598;2023-07-29T00:38:02;96940.98;;;18.26;63.60
61359;BME280;47228;46.762;23.598;2023-07-29T00:40:35;96944.91;;;18.26;63.66
61359;BME280;47228;46.762;23.598;2023-07-29T00:43:03;96939.85;;;18.25;63.65
61359;BME280;47228;46.762;23.598;2023-07-29T00:45:32;96942.58;;;18.24;64.15
61359;BME280;47228;46.762;23.598;2023-07-29T00:48:01;96950.10;;;18.21;64.36
61359;BME280;47228;46.762;23.598;2023-07-29T00:50:31;96948.86;;;18.20;64.34
61359;BME280;47228;46.762;23.598;2023-07-29T00:53:00;96945.63;;;18.19;64.43
61359;BME280;47228;46.762;23.598;2023-07-29T00:55:28;96947.08;;;18.19;64.43
61359;BME280;47228;46.762;23.598;2023-07-29T00:57:57;96944.98;;;18.19;64.81
61359;BME280;47228;46.762;23.598;2023-07-29T01:00:25;96941.42;;;18.16;64.84
61359;BME280;47228;46.762;23.598;2023-07-29T01:02:53;96940.61;;;18.15;64.73
61359;BME280;47228;46.762;23.598;2023-07-29T01:05:28;96939.96;;;18.12;64.84
61359;BME280;47228;46.762;23.598;2023-07-29T01:08:17;96939.41;;;18.09;65.01
61359;BME280;47228;46.762;23.598;2023-07-29T01:10:54;96939.23;;;18.07;65.04
61359;BME280;47228;46.762;23.598;2023-07-29T01:13:36;96933.36;;;18.07;65.28
61359;BME280;47228;46.762;23.598;2023-07-29T01:16:12;96933.31;;;18.07;65.37
61359;BME280;47228;46.762;23.598;2023-07-29T01:18:47;96939.02;;;18.08;65.32
61359;BME280;47228;46.762;23.598;2023-07-29T01:21:16;96945.22;;;18.10;65.59
61359;BME280;47228;46.762;23.598;2023-07-29T01:23:45;96947.11;;;18.11;65.71
61359;BME280;47228;46.762;23.598;2023-07-29T01:26:13;96949.89;;;18.11;65.59
61359;BME280;47228;46.762;23.598;2023-07-29T01:28:40;96947.81;;;18.12;65.60
61359;BME280;47228;46.762;23.598;2023-07-29T01:33:43;96938.57;;;18.11;65.53
61359;BME280;47228;46.762;23.598;2023-07-29T01:36:18;96935.61;;;18.11;65.84
61359;BME280;47228;46.762;23.598;2023-07-29T01:38:49;96934.23;;;18.08;66.13
61359;BME280;47228;46.762;23.598;2023-07-29T01:41:19;96938.08;;;18.05;66.49
61359;BME280;47228;46.762;23.598;2023-07-29T01:43:48;96941.40;;;18.04;66.82
61359;BME280;47228;46.762;23.598;2023-07-29T01:46:16;96939.36;;;18.02;66.82
61359;BME280;47228;46.762;23.598;2023-07-29T01:48:44;96936.85;;;17.97;67.00
61359;BME280;47228;46.762;23.598;2023-07-29T01:51:12;96939.63;;;17.93;67.24
61359;BME280;47228;46.762;23.598;2023-07-29T01:53:41;96934.20;;;17.90;67.47
61359;BME280;47228;46.762;23.598;2023-07-29T01:56:09;96932.34;;;17.85;67.72
61359;BME280;47228;46.762;23.598;2023-07-29T01:58:37;96929.47;;;17.80;67.84
61359;BME280;47228;46.762;23.598;2023-07-29T02:01:05;96931.70;;;17.74;68.24
61359;BME280;47228;46.762;23.598;2023-07-29T02:03:33;96929.63;;;17.70;68.46
61359;BME280;47228;46.762;23.598;2023-07-29T02:06:01;96930.89;;;17.67;68.41
61359;BME280;47228;46.762;23.598;2023-07-29T02:08:29;96933.20;;;17.65;68.85
61359;BME280;47228;46.762;23.598;2023-07-29T02:10:57;96932.54;;;17.61;68.73
61359;BME280;47228;46.762;23.598;2023-07-29T02:13:25;96933.70;;;17.57;68.82
61359;BME280;47228;46.762;23.598;2023-07-29T02:15:53;96938.92;;;17.53;69.06
61359;BME280;47228;46.762;23.598;2023-07-29T02:18:21;96940.14;;;17.49;69.23
61359;BME280;47228;46.762;23.598;2023-07-29T02:20:49;96937.86;;;17.47;69.53
61359;BME280;47228;46.762;23.598;2023-07-29T02:23:17;96938.67;;;17.47;69.52
61359;BME280;47228;46.762;23.598;2023-07-29T02:25:45;96937.16;;;17.46;69.19
61359;BME280;47228;46.762;23.598;2023-07-29T02:28:13;96939.85;;;17.45;69.28
61359;BME280;47228;46.762;23.598;2023-07-29T02:30:42;96942.20;;;17.44;69.28
61359;BME280;47228;46.762;23.598;2023-07-29T02:33:12;96944.92;;;17.42;69.45
61359;BME280;47228;46.762;23.598;2023-07-29T02:35:40;96944.75;;;17.38;69.40
61359;BME280;47228;46.762;23.598;2023-07-29T02:38:08;96942.46;;;17.35;69.30
61359;BME280;47228;46.762;23.598;2023-07-29T02:40:37;96941.16;;;17.33;69.58
61359;BME280;47228;46.762;23.598;2023-07-29T02:43:05;96939.98;;;17.33;69.57
61359;BME280;47228;46.762;23.598;2023-07-29T02:45:33;96937.66;;;17.33;69.82
61359;BME280;47228;46.762;23.598;2023-07-29T02:48:01;96938.30;;;17.33;69.84
61359;BME280;47228;46.762;23.598;2023-07-29T02:50:29;96937.07;;;17.32;69.91
61359;BME280;47228;46.762;23.598;2023-07-29T02:52:57;96938.52;;;17.29;69.86
61359;BME280;47228;46.762;23.598;2023-07-29T02:55:26;96937.70;;;17.29;69.83
61359;BME280;47228;46.762;23.598;2023-07-29T02:57:54;96936.39;;;17.28;69.94
61359;BME280;47228;46.762;23.598;2023-07-29T03:00:22;96941.96;;;17.27;69.76
61359;BME280;47228;46.762;23.598;2023-07-29T03:02:50;96933.73;;;17.24;69.84
61359;BME280;47228;46.762;23.598;2023-07-29T03:05:18;96935.77;;;17.23;69.97
61359;BME280;47228;46.762;23.598;2023-07-29T03:07:46;96937.56;;;17.19;70.09
61359;BME280;47228;46.762;23.598;2023-07-29T03:10:14;96939.80;;;17.15;70.24
61359;BME280;47228;46.762;23.598;2023-07-29T03:12:43;96940.96;;;17.13;70.35
61359;BME280;47228;46.762;23.598;2023-07-29T03:15:11;96946.64;;;17.12;70.38
61359;BME280;47228;46.762;23.598;2023-07-29T03:17:39;96947.73;;;17.08;70.42
61359;BME280;47228;46.762;23.598;2023-07-29T03:20:08;96948.23;;;17.06;70.63
61359;BME280;47228;46.762;23.598;2023-07-29T03:22:36;96945.77;;;17.07;70.99
61359;BME280;47228;46.762;23.598;2023-07-29T03:25:05;96946.23;;;17.08;71.20
61359;BME280;47228;46.762;23.598;2023-07-29T03:27:33;96946.98;;;17.09;71.13
61359;BME280;47228;46.762;23.598;2023-07-29T03:30:04;96949.94;;;17.10;71.24
61359;BME280;47228;46.762;23.598;2023-07-29T03:32:32;96956.45;;;17.12;71.43
61359;BME280;47228;46.762;23.598;2023-07-29T03:35:01;96958.91;;;17.12;71.13
61359;BME280;47228;46.762;23.598;2023-07-29T03:37:29;96967.55;;;17.11;71.30
61359;BME280;47228;46.762;23.598;2023-07-29T03:39:57;96968.40;;;17.11;71.32
61359;BME280;47228;46.762;23.598;2023-07-29T03:42:27;96973.02;;;17.11;71.56
61359;BME280;47228;46.762;23.598;2023-07-29T03:44:55;96975.33;;;17.11;71.65
61359;BME280;47228;46.762;23.598;2023-07-29T03:47:23;96978.82;;;17.12;71.62
61359;BME280;47228;46.762;23.598;2023-07-29T03:49:51;96983.41;;;17.13;71.75
61359;BME280;47228;46.762;23.598;2023-07-29T03:52:19;96984.55;;;17.16;71.73
61359;BME280;47228;46.762;23.598;2023-07-29T03:54:47;96984.57;;;17.18;71.65
61359;BME280;47228;46.762;23.598;2023-07-29T03:57:15;96988.35;;;17.20;71.76
61359;BME280;47228;46.762;23.598;2023-07-29T03:59:43;96991.16;;;17.22;71.65
61359;BME280;47228;46.762;23.598;2023-07-29T04:02:11;96992.55;;;17.23;71.68
61359;BME280;47228;46.762;23.598;2023-07-29T04:04:39;96993.53;;;17.24;71.78
61359;BME280;47228;46.762;23.598;2023-07-29T04:07:09;96987.95;;;17.23;71.86
61359;BME280;47228;46.762;23.598;2023-07-29T04:09:37;96989.44;;;17.24;71.94
61359;BME280;47228;46.762;23.598;2023-07-29T04:12:05;96996.23;;;17.26;72.11
61359;BME280;47228;46.762;23.598;2023-07-29T04:14:34;96999.02;;;17.28;72.31
61359;BME280;47228;46.762;23.598;2023-07-29T04:17:02;96993.96;;;17.31;72.28
61359;BME280;47228;46.762;23.598;2023-07-29T04:19:30;96989.15;;;17.34;72.36
61359;BME280;47228;46.762;23.598;2023-07-29T04:21:58;96989.39;;;17.38;72.47
61359;BME280;47228;46.762;23.598;2023-07-29T04:24:26;96996.77;;;17.42;72.27
61359;BME280;47228;46.762;23.598;2023-07-29T04:26:54;97003.58;;;17.46;72.13
61359;BME280;47228;46.762;23.598;2023-07-29T04:29:22;97002.59;;;17.51;72.24
61359;BME280;47228;46.762;23.598;2023-07-29T04:31:51;97005.05;;;17.56;71.93
61359;BME280;47228;46.762;23.598;2023-07-29T04:34:19;97004.06;;;17.60;71.75
61359;BME280;47228;46.762;23.598;2023-07-29T04:36:47;97006.34;;;17.63;72.02
61359;BME280;47228;46.762;23.598;2023-07-29T04:39:15;97007.64;;;17.66;72.11
61359;BME280;47228;46.762;23.598;2023-07-29T04:41:44;97004.29;;;17.69;71.78
61359;BME280;47228;46.762;23.598;2023-07-29T04:44:12;97009.63;;;17.73;71.62
61359;BME280;47228;46.762;23.598;2023-07-29T04:46:40;97012.50;;;17.75;71.39
61359;BME280;47228;46.762;23.598;2023-07-29T04:49:08;97011.43;;;17.77;71.40
61359;BME280;47228;46.762;23.598;2023-07-29T04:51:36;97012.96;;;17.81;71.51
61359;BME280;47228;46.762;23.598;2023-07-29T04:54:05;97017.92;;;17.84;71.41
61359;BME280;47228;46.762;23.598;2023-07-29T04:56:33;97014.71;;;17.86;71.42
61359;BME280;47228;46.762;23.598;2023-07-29T04:59:01;97016.75;;;17.88;71.25
61359;BME280;47228;46.762;23.598;2023-07-29T05:01:29;97015.36;;;17.90;71.06
61359;BME280;47228;46.762;23.598;2023-07-29T05:03:56;97012.64;;;17.91;71.25
61359;BME280;47228;46.762;23.598;2023-07-29T05:06:24;97013.46;;;17.92;71.46
61359;BME280;47228;46.762;23.598;2023-07-29T05:08:52;97016.41;;;17.94;71.22
61359;BME280;47228;46.762;23.598;2023-07-29T05:11:20;97018.30;;;17.95;71.10
61359;BME280;47228;46.762;23.598;2023-07-29T05:13:49;97019.98;;;17.96;70.90
61359;BME280;47228;46.762;23.598;2023-07-29T05:16:17;97020.32;;;18.00;70.73
61359;BME280;47228;46.762;23.598;2023-07-29T05:18:45;97020.54;;;18.01;70.42
61359;BME280;47228;46.762;23.598;2023-07-29T05:21:13;97017.69;;;18.01;70.46
61359;BME280;47228;46.762;23.598;2023-07-29T05:23:42;97021.52;;;18.04;70.62
61359;BME280;47228;46.762;23.598;2023-07-29T05:26:10;97026.08;;;18.07;70.50
61359;BME280;47228;46.762;23.598;2023-07-29T05:28:38;97025.23;;;18.10;70.71
61359;BME280;47228;46.762;23.598;2023-07-29T05:31:06;97024.84;;;18.16;70.30
61359;BME280;47228;46.762;23.598;2023-07-29T05:33:34;97025.30;;;18.20;70.16
61359;BME280;47228;46.762;23.598;2023-07-29T05:36:04;97027.37;;;18.24;69.82
61359;BME280;47228;46.762;23.598;2023-07-29T05:38:32;97029.70;;;18.30;69.62
61359;BME280;47228;46.762;23.598;2023-07-29T05:41:00;97033.71;;;18.36;69.45
61359;BME280;47228;46.762;23.598;2023-07-29T05:43:28;97031.73;;;18.40;69.41
61359;BME280;47228;46.762;23.598;2023-07-29T05:45:56;97031.75;;;18.42;68.91
61359;BME280;47228;46.762;23.598;2023-07-29T05:48:24;97030.73;;;18.44;68.87
61359;BME280;47228;46.762;23.598;2023-07-29T05:50:52;97026.02;;;18.46;68.49
61359;BME280;47228;46.762;23.598;2023-07-29T05:53:20;97026.40;;;18.50;68.69
61359;BME280;47228;46.762;23.598;2023-07-29T05:55:48;97027.19;;;18.57;68.60
61359;BME280;47228;46.762;23.598;2023-07-29T05:58:16;97025.01;;;18.65;68.81
61359;BME280;47228;46.762;23.598;2023-07-29T06:00:44;97025.30;;;18.74;68.53
61359;BME280;47228;46.762;23.598;2023-07-29T06:03:12;97025.91;;;18.82;68.06
61359;BME280;47228;46.762;23.598;2023-07-29T06:05:41;97027.75;;;18.87;67.38
61359;BME280;47228;46.762;23.598;2023-07-29T06:08:08;97029.92;;;18.91;67.04
61359;BME280;47228;46.762;23.598;2023-07-29T06:10:37;97030.41;;;18.94;66.99
61359;BME280;47228;46.762;23.598;2023-07-29T06:13:05;97030.52;;;18.98;67.26
61359;BME280;47228;46.762;23.598;2023-07-29T06:15:33;97027.67;;;19.03;67.35
61359;BME280;47228;46.762;23.598;2023-07-29T06:18:02;97033.21;;;19.09;67.30
61359;BME280;47228;46.762;23.598;2023-07-29T06:20:30;97030.80;;;19.15;67.39
61359;BME280;47228;46.762;23.598;2023-07-29T06:22:58;97032.80;;;19.18;67.28
61359;BME280;47228;46.762;23.598;2023-07-29T06:25:26;97033.77;;;19.22;66.92
61359;BME280;47228;46.762;23.598;2023-07-29T06:27:54;97034.36;;;19.25;66.75
61359;BME280;47228;46.762;23.598;2023-07-29T06:30:22;97029.63;;;19.30;66.63
61359;BME280;47228;46.762;23.598;2023-07-29T06:32:50;97030.23;;;19.35;66.72
61359;BME280;47228;46.762;23.598;2023-07-29T06:35:18;97029.05;;;19.42;66.85
61359;BME280;47228;46.762;23.598;2023-07-29T06:37:46;97030.12;;;19.50;66.99
61359;BME280;47228;46.762;23.598;2023-07-29T06:40:14;97031.52;;;19.57;67.13
61359;BME280;47228;46.762;23.598;2023-07-29T06:42:42;97029.90;;;19.64;67.20
61359;BME280;47228;46.762;23.598;2023-07-29T06:45:10;97030.43;;;19.73;67.19
61359;BME280;47228;46.762;23.598;2023-07-29T06:47:38;97028.10;;;19.80;66.65
61359;BME280;47228;46.762;23.598;2023-07-29T06:50:06;97027.60;;;19.88;66.06
61359;BME280;47228;46.762;23.598;2023-07-29T06:52:34;97023.71;;;19.94;65.36
61359;BME280;47228;46.762;23.598;2023-07-29T06:55:04;97024.44;;;19.99;65.32
61359;BME280;47228;46.762;23.598;2023-07-29T06:57:32;97026.36;;;20.06;65.60
61359;BME280;47228;46.762;23.598;2023-07-29T07:00:01;97023.36;;;20.17;65.76
61359;BME280;47228;46.762;23.598;2023-07-29T07:02:29;97029.54;;;20.27;65.71
61359;BME280;47228;46.762;23.598;2023-07-29T07:04:57;97026.10;;;20.40;65.54
61359;BME280;47228;46.762;23.598;2023-07-29T07:07:25;97027.98;;;20.53;65.18
61359;BME280;47228;46.762;23.598;2023-07-29T07:09:53;97026.27;;;20.66;64.87
61359;BME280;47228;46.762;23.598;2023-07-29T07:12:21;97027.44;;;20.80;64.37
61359;BME280;47228;46.762;23.598;2023-07-29T07:14:49;97028.85;;;20.92;63.38
61359;BME280;47228;46.762;23.598;2023-07-29T07:17:17;97033.80;;;21.05;62.76
61359;BME280;47228;46.762;23.598;2023-07-29T07:19:46;97033.23;;;21.17;62.36
61359;BME280;47228;46.762;23.598;2023-07-29T07:22:14;97035.95;;;21.29;62.14
61359;BME280;47228;46.762;23.598;2023-07-29T07:24:42;97034.59;;;21.41;62.05
61359;BME280;47228;46.762;23.598;2023-07-29T07:27:10;97035.89;;;21.52;61.63
61359;BME280;47228;46.762;23.598;2023-07-29T07:29:38;97036.35;;;21.63;61.21
61359;BME280;47228;46.762;23.598;2023-07-29T07:32:06;97033.98;;;21.74;60.71
61359;BME280;47228;46.762;23.598;2023-07-29T07:34:34;97033.63;;;21.85;60.99
61359;BME280;47228;46.762;23.598;2023-07-29T07:37:02;97036.67;;;21.96;61.07
61359;BME280;47228;46.762;23.598;2023-07-29T07:39:32;97032.61;;;22.07;61.04
61359;BME280;47228;46.762;23.598;2023-07-29T07:42:00;97029.09;;;22.19;60.41
61359;BME280;47228;46.762;23.598;2023-07-29T07:44:28;97030.30;;;22.30;60.78
61359;BME280;47228;46.762;23.598;2023-07-29T07:46:56;97029.89;;;22.43;60.36
61359;BME280;47228;46.762;23.598;2023-07-29T07:49:24;97029.75;;;22.56;59.77
61359;BME280;47228;46.762;23.598;2023-07-29T07:51:52;97026.25;;;22.69;58.95
61359;BME280;47228;46.762;23.598;2023-07-29T07:54:20;97026.53;;;22.80;58.77
61359;BME280;47228;46.762;23.598;2023-07-29T07:56:48;97028.26;;;22.93;59.14
61359;BME280;47228;46.762;23.598;2023-07-29T07:59:16;97027.84;;;23.07;58.98
61359;BME280;47228;46.762;23.598;2023-07-29T08:01:44;97030.98;;;23.22;59.21
61359;BME280;47228;46.762;23.598;2023-07-29T08:04:13;97035.14;;;23.38;58.14
61359;BME280;47228;46.762;23.598;2023-07-29T08:06:41;97032.27;;;23.52;56.95
61359;BME280;47228;46.762;23.598;2023-07-29T08:09:08;97030.63;;;23.64;57.31
61359;BME280;47228;46.762;23.598;2023-07-29T08:11:36;97027.83;;;23.79;56.97
61359;BME280;47228;46.762;23.598;2023-07-29T08:14:04;97029.64;;;23.93;55.72
61359;BME280;47228;46.762;23.598;2023-07-29T08:16:32;97030.14;;;24.04;54.70
61359;BME280;47228;46.762;23.598;2023-07-29T08:19:00;97029.61;;;24.14;54.04
61359;BME280;47228;46.762;23.598;2023-07-29T08:21:28;97026.53;;;24.25;53.83
61359;BME280;47228;46.762;23.598;2023-07-29T08:23:56;97023.84;;;24.35;53.59
61359;BME280;47228;46.762;23.598;2023-07-29T08:26:24;97023.71;;;24.49;54.07
61359;BME280;47228;46.762;23.598;2023-07-29T08:28:52;97022.98;;;24.64;53.87
61359;BME280;47228;46.762;23.598;2023-07-29T08:31:22;97023.97;;;24.77;53.20
61359;BME280;47228;46.762;23.598;2023-07-29T08:33:50;97026.20;;;24.86;53.11
61359;BME280;47228;46.762;23.598;2023-07-29T08:36:18;97021.46;;;24.96;52.77
61359;BME280;47228;46.762;23.598;2023-07-29T08:38:46;97023.11;;;25.07;52.30
61359;BME280;47228;46.762;23.598;2023-07-29T08:41:19;97024.33;;;25.13;51.09
61359;BME280;47228;46.762;23.598;2023-07-29T08:43:53;97024.91;;;25.19;51.48
61359;BME280;47228;46.762;23.598;2023-07-29T08:46:24;97024.79;;;25.29;51.43
61359;BME280;47228;46.762;23.598;2023-07-29T08:48:52;97026.52;;;25.43;51.41
61359;BME280;47228;46.762;23.598;2023-07-29T08:51:21;97028.63;;;25.62;51.51
61359;BME280;47228;46.762;23.598;2023-07-29T08:53:49;97027.45;;;25.86;51.52
61359;BME280;47228;46.762;23.598;2023-07-29T08:56:17;97023.83;;;26.04;50.58
61359;BME280;47228;46.762;23.598;2023-07-29T08:58:46;97022.20;;;26.13;49.06
61359;BME280;47228;46.762;23.598;2023-07-29T09:01:15;97020.84;;;26.16;48.58
61359;BME280;47228;46.762;23.598;2023-07-29T09:03:43;97018.23;;;26.14;48.42
61359;BME280;47228;46.762;23.598;2023-07-29T09:06:14;97017.08;;;26.10;47.99
61359;BME280;47228;46.762;23.598;2023-07-29T09:08:43;97013.20;;;26.11;48.71
61359;BME280;47228;46.762;23.598;2023-07-29T09:11:14;97009.83;;;26.18;48.67
61359;BME280;47228;46.762;23.598;2023-07-29T09:13:44;96999.77;;;26.29;48.16
61359;BME280;47228;46.762;23.598;2023-07-29T09:16:13;96998.23;;;26.42;48.08
61359;BME280;47228;46.762;23.598;2023-07-29T09:18:41;96997.73;;;26.59;47.49
61359;BME280;47228;46.762;23.598;2023-07-29T09:21:09;96996.73;;;26.72;46.45
61359;BME280;47228;46.762;23.598;2023-07-29T09:23:44;96987.48;;;26.81;45.76
61359;BME280;47228;46.762;23.598;2023-07-29T09:26:12;96985.73;;;26.89;46.12
61359;BME280;47228;46.762;23.598;2023-07-29T09:28:40;96980.95;;;27.00;46.52
61359;BME280;47228;46.762;23.598;2023-07-29T09:31:19;96980.42;;;27.09;46.35
61359;BME280;47228;46.762;23.598;2023-07-29T09:33:47;96980.33;;;27.23;46.52
61359;BME280;47228;46.762;23.598;2023-07-29T09:36:15;96982.10;;;27.37;45.79
61359;BME280;47228;46.762;23.598;2023-07-29T09:38:44;96983.61;;;27.49;45.81
61359;BME280;47228;46.762;23.598;2023-07-29T09:41:13;96980.73;;;27.60;45.52
61359;BME280;47228;46.762;23.598;2023-07-29T09:43:43;96983.08;;;27.73;45.44
61359;BME280;47228;46.762;23.598;2023-07-29T09:46:11;96985.30;;;27.86;44.67
61359;BME280;47228;46.762;23.598;2023-07-29T09:48:39;96984.70;;;27.88;44.03
61359;BME280;47228;46.762;23.598;2023-07-29T09:51:12;96983.83;;;27.88;43.47
61359;BME280;47228;46.762;23.598;2023-07-29T09:53:43;96982.96;;;27.88;43.87
61359;BME280;47228;46.762;23.598;2023-07-29T09:56:14;96982.45;;;27.93;43.73
61359;BME280;47228;46.762;23.598;2023-07-29T09:58:47;96978.08;;;27.96;43.81
61359;BME280;47228;46.762;23.598;2023-07-29T10:01:16;96978.55;;;28.00;44.14
61359;BME280;47228;46.762;23.598;2023-07-29T10:03:44;96978.27;;;27.99;44.31
61359;BME280;47228;46.762;23.598;2023-07-29T10:06:14;96977.36;;;27.90;44.60
61359;BME280;47228;46.762;23.598;2023-07-29T10:08:42;96976.88;;;27.82;44.62
61359;BME280;47228;46.762;23.598;2023-07-29T10:11:11;96972.59;;;27.80;44.74
61359;BME280;47228;46.762;23.598;2023-07-29T10:13:39;96975.67;;;27.79;45.28
61359;BME280;47228;46.762;23.598;2023-07-29T10:16:08;96977.30;;;27.89;45.19
61359;BME280;47228;46.762;23.598;2023-07-29T10:18:37;96978.23;;;27.98;45.15
61359;BME280;47228;46.762;23.598;2023-07-29T10:21:06;96977.56;;;28.11;45.02
61359;BME280;47228;46.762;23.598;2023-07-29T10:23:37;96975.59;;;28.31;44.54
61359;BME280;47228;46.762;23.598;2023-07-29T10:26:10;96976.02;;;28.59;44.24
61359;BME280;47228;46.762;23.598;2023-07-29T10:28:46;96977.09;;;28.85;42.99
61359;BME280;47228;46.762;23.598;2023-07-29T10:31:16;96976.87;;;29.07;42.30
61359;BME280;47228;46.762;23.598;2023-07-29T10:33:45;96973.23;;;29.25;41.80
61359;BME280;47228;46.762;23.598;2023-07-29T10:36:13;96971.48;;;29.24;41.37
61359;BME280;47228;46.762;23.598;2023-07-29T10:38:42;96970.77;;;29.31;41.91
61359;BME280;47228;46.762;23.598;2023-07-29T10:41:10;96969.45;;;29.47;41.93
61359;BME280;47228;46.762;23.598;2023-07-29T10:43:38;96966.77;;;29.51;41.13
61359;BME280;47228;46.762;23.598;2023-07-29T10:46:23;96961.91;;;29.44;40.59
61359;BME280;47228;46.762;23.598;2023-07-29T10:51:35;96964.60;;;29.16;41.53
61359;BME280;47228;46.762;23.598;2023-07-29T10:54:09;96963.34;;;29.06;41.81
61359;BME280;47228;46.762;23.598;2023-07-29T10:56:40;96959.00;;;28.98;41.93
61359;BME280;47228;46.762;23.598;2023-07-29T11:01:41;96962.39;;;28.72;42.06
61359;BME280;47228;46.762;23.598;2023-07-29T11:04:26;96961.93;;;28.55;42.53
61359;BME280;47228;46.762;23.598;2023-07-29T11:07:18;96953.83;;;28.40;42.65
61359;BME280;47228;46.762;23.598;2023-07-29T11:15:24;96955.79;;;27.73;43.71
61359;BME280;47228;46.762;23.598;2023-07-29T11:17:53;96949.46;;;27.65;44.55
61359;BME280;47228;46.762;23.598;2023-07-29T11:20:27;96943.63;;;27.58;44.58
61359;BME280;47228;46.762;23.598;2023-07-29T11:22:57;96938.77;;;27.52;44.47
61359;BME280;47228;46.762;23.598;2023-07-29T11:25:28;96938.52;;;27.46;44.74
61359;BME280;47228;46.762;23.598;2023-07-29T11:27:58;96931.09;;;27.45;45.01
61359;BME280;47228;46.762;23.598;2023-07-29T11:30:26;96926.16;;;27.49;45.16
61359;BME280;47228;46.762;23.598;2023-07-29T11:32:55;96919.73;;;27.53;45.13
61359;BME280;47228;46.762;23.598;2023-07-29T11:35:24;96917.11;;;27.52;44.48
61359;BME280;47228;46.762;23.598;2023-07-29T11:37:54;96918.52;;;27.48;44.55
61359;BME280;47228;46.762;23.598;2023-07-29T11:40:26;96921.88;;;27.44;44.51
61359;BME280;47228;46.762;23.598;2023-07-29T11:42:54;96922.05;;;27.38;44.55
61359;BME280;47228;46.762;23.598;2023-07-29T11:45:22;96925.20;;;27.29;44.68
61359;BME280;47228;46.762;23.598;2023-07-29T11:48:02;96930.14;;;27.19;44.84
61359;BME280;47228;46.762;23.598;2023-07-29T11:50:30;96930.59;;;27.09;44.98
61359;BME280;47228;46.762;23.598;2023-07-29T11:52:58;96923.79;;;27.00;45.16
61359;BME280;47228;46.762;23.598;2023-07-29T11:55:26;96923.01;;;26.89;47.24
61359;BME280;47228;46.762;23.598;2023-07-29T11:57:54;96922.84;;;26.68;50.83
61359;BME280;47228;46.762;23.598;2023-07-29T12:00:22;96934.21;;;26.31;53.13
61359;BME280;47228;46.762;23.598;2023-07-29T12:02:50;96939.77;;;25.87;54.36
61359;BME280;47228;46.762;23.598;2023-07-29T12:05:21;96948.34;;;25.43;56.06
61359;BME280;47228;46.762;23.598;2023-07-29T12:07:50;96949.09;;;25.01;57.62
61359;BME280;47228;46.762;23.598;2023-07-29T12:10:18;96948.77;;;24.66;59.29
61359;BME280;47228;46.762;23.598;2023-07-29T12:12:50;96953.36;;;24.34;61.35
61359;BME280;47228;46.762;23.598;2023-07-29T12:15:28;96956.80;;;24.08;62.71
61359;BME280;47228;46.762;23.598;2023-07-29T12:17:59;96952.48;;;23.90;63.99
61359;BME280;47228;46.762;23.598;2023-07-29T12:20:29;96944.36;;;23.76;65.44
61359;BME280;47228;46.762;23.598;2023-07-29T12:22:59;96951.30;;;23.65;66.31
61359;BME280;47228;46.762;23.598;2023-07-29T12:25:30;96954.71;;;23.55;67.37
61359;BME280;47228;46.762;23.598;2023-07-29T12:28:07;96956.63;;;23.45;66.91
61359;BME280;47228;46.762;23.598;2023-07-29T12:30:41;96953.65;;;23.34;66.70
61359;BME280;47228;46.762;23.598;2023-07-29T12:33:10;96953.38;;;23.23;67.23
61359;BME280;47228;46.762;23.598;2023-07-29T12:35:38;96966.92;;;23.14;68.23
61359;BME280;47228;46.762;23.598;2023-07-29T12:38:06;96979.80;;;23.07;68.91
61359;BME280;47228;46.762;23.598;2023-07-29T12:40:38;96987.83;;;22.99;69.36
61359;BME280;47228;46.762;23.598;2023-07-29T12:43:07;96987.19;;;22.91;69.15
61359;BME280;47228;46.762;23.598;2023-07-29T12:45:36;96977.85;;;22.84;69.16
61359;BME280;47228;46.762;23.598;2023-07-29T12:48:04;96966.38;;;22.80;69.82
61359;BME280;47228;46.762;23.598;2023-07-29T12:50:34;96953.21;;;22.77;70.39
61359;BME280;47228;46.762;23.598;2023-07-29T12:53:02;96951.43;;;22.77;70.36
61359;BME280;47228;46.762;23.598;2023-07-29T12:55:30;96957.71;;;22.81;70.95
61359;BME280;47228;46.762;23.598;2023-07-29T12:57:58;96961.73;;;22.88;71.39
61359;BME280;47228;46.762;23.598;2023-07-29T13:00:26;96966.89;;;22.94;71.46
61359;BME280;47228;46.762;23.598;2023-07-29T13:02:55;96963.77;;;23.00;71.75
61359;BME280;47228;46.762;23.598;2023-07-29T13:05:23;96955.58;;;23.08;72.36
61359;BME280;47228;46.762;23.598;2023-07-29T13:07:51;96956.11;;;23.15;71.91
61359;BME280;47228;46.762;23.598;2023-07-29T13:10:19;96959.34;;;23.20;70.13
61359;BME280;47228;46.762;23.598;2023-07-29T13:12:47;96957.52;;;23.25;69.52